sensor_id;sensor_type;location;lat;lon;timestamp;P1;durP1;ratioP1;P2;durP2;ratioP2
39032;SDS011;24794;51.982;5.878;2023-12-04T00:00:56;25.02;;;13.70;;
39032;SDS011;24794;51.982;5.878;2023-12-04T00:01:56;26.75;;;14.30;;
39032;SDS011;24794;51.982;5.878;2023-12-04T00:02:57;28.45;;;15.52;;
39032;SDS011;24794;51.982;5.878;2023-12-04T00:03:58;28.17;;;14.70;;
39032;SDS011;24794;51.982;5.878;2023-12-04T00:04:58;28.48;;;15.45;;
39032;SDS011;24794;51.982;5.878;2023-12-04T00:05:59;25.00;;;14.65;;
39032;SDS011;24794;51.982;5.878;2023-12-04T00:06:59;29.17;;;16.70;;
39032;SDS011;24794;51.982;5.878;2023-12-04T00:08:00;26.70;;;14.00;;
39032;SDS011;24794;51.982;5.878;2023-12-04T00:09:00;27.40;;;14.52;;
39032;SDS011;24794;51.982;5.878;2023-12-04T00:10:01;26.25;;;14.40;;
39032;SDS011;24794;51.982;5.878;2023-12-04T00:11:01;27.70;;;14.30;;
39032;SDS011;24794;51.982;5.878;2023-12-04T00:12:02;26.90;;;14.50;;
39032;SDS011;24794;51.982;5.878;2023-12-04T00:13:02;29.38;;;14.65;;
39032;SDS011;24794;51.982;5.878;2023-12-04T00:14:03;28.23;;;15.00;;
39032;SDS011;24794;51.982;5.878;2023-12-04T00:15:04;28.48;;;16.17;;
39032;SDS011;24794;51.982;5.878;2023-12-04T00:16:04;28.65;;;16.27;;
39032;SDS011;24794;51.982;5.878;2023-12-04T00:17:06;31.50;;;16.42;;
39032;SDS011;24794;51.982;5.878;2023-12-04T00:18:06;29.88;;;16.95;;
39032;SDS011;24794;51.982;5.878;2023-12-04T00:19:07;31.00;;;16.02;;
39032;SDS011;24794;51.982;5.878;2023-12-04T00:20:07;31.98;;;17.27;;
39032;SDS011;24794;51.982;5.878;2023-12-04T00:21:09;33.38;;;16.70;;
39032;SDS011;24794;51.982;5.878;2023-12-04T00:22:09;33.55;;;16.98;;
39032;SDS011;24794;51.982;5.878;2023-12-04T00:23:10;28.00;;;15.48;;
39032;SDS011;24794;51.982;5.878;2023-12-04T00:24:10;30.80;;;15.50;;
39032;SDS011;24794;51.982;5.878;2023-12-04T00:25:11;28.50;;;14.88;;
39032;SDS011;24794;51.982;5.878;2023-12-04T00:26:12;29.27;;;15.95;;
39032;SDS011;24794;51.982;5.878;2023-12-04T00:27:13;32.97;;;16.02;;
39032;SDS011;24794;51.982;5.878;2023-12-04T00:28:13;30.00;;;16.30;;
39032;SDS011;24794;51.982;5.878;2023-12-04T00:29:14;31.88;;;15.45;;
39032;SDS011;24794;51.982;5.878;2023-12-04T00:30:14;30.67;;;15.65;;
39032;SDS011;24794;51.982;5.878;2023-12-04T00:31:15;27.73;;;14.50;;
39032;SDS011;24794;51.982;5.878;2023-12-04T00:32:15;29.02;;;14.57;;
39032;SDS011;24794;51.982;5.878;2023-12-04T00:33:16;29.33;;;15.75;;
39032;SDS011;24794;51.982;5.878;2023-12-04T00:34:16;30.55;;;15.73;;
39032;SDS011;24794;51.982;5.878;2023-12-04T00:35:17;29.00;;;15.32;;
39032;SDS011;24794;51.982;5.878;2023-12-04T00:36:17;28.02;;;14.95;;
39032;SDS011;24794;51.982;5.878;2023-12-04T00:37:19;27.35;;;14.88;;
39032;SDS011;24794;51.982;5.878;2023-12-04T00:38:20;30.23;;;14.90;;
39032;SDS011;24794;51.982;5.878;2023-12-04T00:39:20;26.85;;;13.90;;
39032;SDS011;24794;51.982;5.878;2023-12-04T00:40:21;23.80;;;12.63;;
39032;SDS011;24794;51.982;5.878;2023-12-04T00:41:21;25.70;;;13.95;;
39032;SDS011;24794;51.982;5.878;2023-12-04T00:42:22;26.42;;;13.93;;
39032;SDS011;24794;51.982;5.878;2023-12-04T00:43:22;28.73;;;15.18;;
39032;SDS011;24794;51.982;5.878;2023-12-04T00:44:22;30.15;;;16.35;;
39032;SDS011;24794;51.982;5.878;2023-12-04T00:45:23;29.73;;;15.38;;
39032;SDS011;24794;51.982;5.878;2023-12-04T00:46:24;27.25;;;14.02;;
39032;SDS011;24794;51.982;5.878;2023-12-04T00:47:25;26.48;;;13.88;;
39032;SDS011;24794;51.982;5.878;2023-12-04T00:48:25;26.70;;;14.13;;
39032;SDS011;24794;51.982;5.878;2023-12-04T00:49:26;27.40;;;14.55;;
39032;SDS011;24794;51.982;5.878;2023-12-04T00:50:26;25.85;;;14.15;;
39032;SDS011;24794;51.982;5.878;2023-12-04T00:51:26;23.50;;;13.15;;
39032;SDS011;24794;51.982;5.878;2023-12-04T00:52:27;29.65;;;15.07;;
39032;SDS011;24794;51.982;5.878;2023-12-04T00:53:27;29.25;;;15.23;;
39032;SDS011;24794;51.982;5.878;2023-12-04T00:54:28;28.10;;;14.23;;
39032;SDS011;24794;51.982;5.878;2023-12-04T00:55:28;30.90;;;15.48;;
39032;SDS011;24794;51.982;5.878;2023-12-04T00:56:29;26.17;;;13.60;;
39032;SDS011;24794;51.982;5.878;2023-12-04T00:57:29;29.40;;;15.25;;
39032;SDS011;24794;51.982;5.878;2023-12-04T00:58:30;25.00;;;13.25;;
39032;SDS011;24794;51.982;5.878;2023-12-04T00:59:30;25.60;;;13.07;;
39032;SDS011;24794;51.982;5.878;2023-12-04T01:00:31;27.92;;;13.90;;
39032;SDS011;24794;51.982;5.878;2023-12-04T01:01:32;25.00;;;13.32;;
39032;SDS011;24794;51.982;5.878;2023-12-04T01:02:32;24.52;;;13.20;;
39032;SDS011;24794;51.982;5.878;2023-12-04T01:03:33;24.40;;;13.02;;
39032;SDS011;24794;51.982;5.878;2023-12-04T01:04:33;28.80;;;14.77;;
39032;SDS011;24794;51.982;5.878;2023-12-04T01:05:34;25.00;;;13.45;;
39032;SDS011;24794;51.982;5.878;2023-12-04T01:06:35;25.35;;;13.35;;
39032;SDS011;24794;51.982;5.878;2023-12-04T01:07:36;27.95;;;14.57;;
39032;SDS011;24794;51.982;5.878;2023-12-04T01:08:36;25.92;;;13.52;;
39032;SDS011;24794;51.982;5.878;2023-12-04T01:09:37;26.55;;;13.82;;
39032;SDS011;24794;51.982;5.878;2023-12-04T01:10:38;24.65;;;13.00;;
39032;SDS011;24794;51.982;5.878;2023-12-04T01:11:39;27.23;;;13.63;;
39032;SDS011;24794;51.982;5.878;2023-12-04T01:12:40;24.20;;;13.10;;
39032;SDS011;24794;51.982;5.878;2023-12-04T01:13:40;25.90;;;12.63;;
39032;SDS011;24794;51.982;5.878;2023-12-04T01:14:41;21.80;;;12.35;;
39032;SDS011;24794;51.982;5.878;2023-12-04T01:15:41;26.40;;;13.90;;
39032;SDS011;24794;51.982;5.878;2023-12-04T01:16:42;24.60;;;12.45;;
39032;SDS011;24794;51.982;5.878;2023-12-04T01:17:43;25.08;;;13.27;;
39032;SDS011;24794;51.982;5.878;2023-12-04T01:18:43;25.63;;;13.43;;
39032;SDS011;24794;51.982;5.878;2023-12-04T01:19:44;25.95;;;12.85;;
39032;SDS011;24794;51.982;5.878;2023-12-04T01:20:44;24.25;;;11.98;;
39032;SDS011;24794;51.982;5.878;2023-12-04T01:21:45;24.58;;;13.35;;
39032;SDS011;24794;51.982;5.878;2023-12-04T01:22:45;26.48;;;13.35;;
39032;SDS011;24794;51.982;5.878;2023-12-04T01:23:46;27.15;;;12.88;;
39032;SDS011;24794;51.982;5.878;2023-12-04T01:24:46;27.15;;;13.52;;
39032;SDS011;24794;51.982;5.878;2023-12-04T01:25:47;24.00;;;12.35;;
39032;SDS011;24794;51.982;5.878;2023-12-04T01:26:47;29.20;;;14.15;;
39032;SDS011;24794;51.982;5.878;2023-12-04T01:27:48;24.92;;;13.77;;
39032;SDS011;24794;51.982;5.878;2023-12-04T01:28:48;26.25;;;14.05;;
39032;SDS011;24794;51.982;5.878;2023-12-04T01:29:49;26.98;;;13.82;;
39032;SDS011;24794;51.982;5.878;2023-12-04T01:30:49;28.55;;;14.15;;
39032;SDS011;24794;51.982;5.878;2023-12-04T01:31:50;27.50;;;14.57;;
39032;SDS011;24794;51.982;5.878;2023-12-04T01:32:50;26.05;;;12.95;;
39032;SDS011;24794;51.982;5.878;2023-12-04T01:33:51;25.13;;;12.75;;
39032;SDS011;24794;51.982;5.878;2023-12-04T01:34:52;26.27;;;13.98;;
39032;SDS011;24794;51.982;5.878;2023-12-04T01:35:52;25.60;;;13.32;;
39032;SDS011;24794;51.982;5.878;2023-12-04T01:36:53;27.05;;;14.10;;
39032;SDS011;24794;51.982;5.878;2023-12-04T01:37:53;24.50;;;13.10;;
39032;SDS011;24794;51.982;5.878;2023-12-04T01:38:54;26.85;;;13.48;;
39032;SDS011;24794;51.982;5.878;2023-12-04T01:39:54;23.63;;;12.73;;
39032;SDS011;24794;51.982;5.878;2023-12-04T01:40:55;23.05;;;12.40;;
39032;SDS011;24794;51.982;5.878;2023-12-04T01:41:55;25.55;;;13.02;;
39032;SDS011;24794;51.982;5.878;2023-12-04T01:42:56;24.95;;;12.68;;
39032;SDS011;24794;51.982;5.878;2023-12-04T01:43:56;23.13;;;13.23;;
39032;SDS011;24794;51.982;5.878;2023-12-04T01:44:57;26.52;;;13.32;;
39032;SDS011;24794;51.982;5.878;2023-12-04T01:45:57;26.75;;;14.07;;
39032;SDS011;24794;51.982;5.878;2023-12-04T01:47:00;25.25;;;13.02;;
39032;SDS011;24794;51.982;5.878;2023-12-04T01:48:01;26.08;;;14.32;;
39032;SDS011;24794;51.982;5.878;2023-12-04T01:49:02;27.60;;;14.20;;
39032;SDS011;24794;51.982;5.878;2023-12-04T01:50:03;27.27;;;13.57;;
39032;SDS011;24794;51.982;5.878;2023-12-04T01:51:06;25.52;;;12.95;;
39032;SDS011;24794;51.982;5.878;2023-12-04T01:52:09;23.45;;;12.23;;
39032;SDS011;24794;51.982;5.878;2023-12-04T01:53:10;24.75;;;12.75;;
39032;SDS011;24794;51.982;5.878;2023-12-04T01:54:10;27.45;;;13.52;;
39032;SDS011;24794;51.982;5.878;2023-12-04T01:55:11;26.08;;;13.98;;
39032;SDS011;24794;51.982;5.878;2023-12-04T01:56:12;23.25;;;13.15;;
39032;SDS011;24794;51.982;5.878;2023-12-04T01:57:14;25.77;;;13.52;;
39032;SDS011;24794;51.982;5.878;2023-12-04T01:58:15;28.73;;;14.63;;
39032;SDS011;24794;51.982;5.878;2023-12-04T01:59:16;25.42;;;13.32;;
39032;SDS011;24794;51.982;5.878;2023-12-04T02:00:17;24.52;;;13.07;;
39032;SDS011;24794;51.982;5.878;2023-12-04T02:01:20;24.52;;;12.50;;
39032;SDS011;24794;51.982;5.878;2023-12-04T02:02:22;25.13;;;13.15;;
39032;SDS011;24794;51.982;5.878;2023-12-04T02:03:22;20.83;;;12.27;;
39032;SDS011;24794;51.982;5.878;2023-12-04T02:04:23;23.85;;;12.35;;
39032;SDS011;24794;51.982;5.878;2023-12-04T02:05:25;21.60;;;11.68;;
39032;SDS011;24794;51.982;5.878;2023-12-04T02:06:27;25.70;;;13.25;;
39032;SDS011;24794;51.982;5.878;2023-12-04T02:07:27;28.42;;;15.30;;
39032;SDS011;24794;51.982;5.878;2023-12-04T02:08:28;24.02;;;13.32;;
39032;SDS011;24794;51.982;5.878;2023-12-04T02:09:30;24.15;;;13.13;;
39032;SDS011;24794;51.982;5.878;2023-12-04T02:10:30;25.17;;;13.50;;
39032;SDS011;24794;51.982;5.878;2023-12-04T02:11:31;25.77;;;13.55;;
39032;SDS011;24794;51.982;5.878;2023-12-04T02:12:31;25.65;;;13.80;;
39032;SDS011;24794;51.982;5.878;2023-12-04T02:13:32;23.55;;;12.82;;
39032;SDS011;24794;51.982;5.878;2023-12-04T02:14:33;20.75;;;12.02;;
39032;SDS011;24794;51.982;5.878;2023-12-04T02:15:34;23.42;;;12.68;;
39032;SDS011;24794;51.982;5.878;2023-12-04T02:16:36;23.25;;;12.35;;
39032;SDS011;24794;51.982;5.878;2023-12-04T02:17:42;21.52;;;11.75;;
39032;SDS011;24794;51.982;5.878;2023-12-04T02:18:44;23.67;;;12.32;;
39032;SDS011;24794;51.982;5.878;2023-12-04T02:19:45;25.02;;;12.43;;
39032;SDS011;24794;51.982;5.878;2023-12-04T02:20:45;21.98;;;11.82;;
39032;SDS011;24794;51.982;5.878;2023-12-04T02:21:46;24.30;;;12.82;;
39032;SDS011;24794;51.982;5.878;2023-12-04T02:22:46;21.67;;;12.02;;
39032;SDS011;24794;51.982;5.878;2023-12-04T02:23:51;26.58;;;13.90;;
39032;SDS011;24794;51.982;5.878;2023-12-04T02:24:52;24.23;;;13.43;;
39032;SDS011;24794;51.982;5.878;2023-12-04T02:25:58;25.30;;;13.30;;
39032;SDS011;24794;51.982;5.878;2023-12-04T02:27:04;25.77;;;12.73;;
39032;SDS011;24794;51.982;5.878;2023-12-04T02:28:13;21.88;;;11.88;;
39032;SDS011;24794;51.982;5.878;2023-12-04T02:29:21;21.95;;;11.77;;
39032;SDS011;24794;51.982;5.878;2023-12-04T02:30:29;22.70;;;12.38;;
39032;SDS011;24794;51.982;5.878;2023-12-04T02:31:31;23.75;;;12.60;;
39032;SDS011;24794;51.982;5.878;2023-12-04T02:32:35;23.33;;;12.10;;
39032;SDS011;24794;51.982;5.878;2023-12-04T02:33:40;25.05;;;12.02;;
39032;SDS011;24794;51.982;5.878;2023-12-04T02:34:42;23.75;;;11.98;;
39032;SDS011;24794;51.982;5.878;2023-12-04T02:35:44;24.05;;;12.88;;
39032;SDS011;24794;51.982;5.878;2023-12-04T02:36:46;21.88;;;11.85;;
39032;SDS011;24794;51.982;5.878;2023-12-04T02:37:48;24.63;;;13.38;;
39032;SDS011;24794;51.982;5.878;2023-12-04T02:38:50;23.50;;;12.25;;
39032;SDS011;24794;51.982;5.878;2023-12-04T02:39:51;25.45;;;14.05;;
39032;SDS011;24794;51.982;5.878;2023-12-04T02:40:55;22.80;;;13.23;;
39032;SDS011;24794;51.982;5.878;2023-12-04T02:41:56;24.85;;;12.93;;
39032;SDS011;24794;51.982;5.878;2023-12-04T02:42:56;21.20;;;11.77;;
39032;SDS011;24794;51.982;5.878;2023-12-04T02:43:57;24.95;;;12.93;;
39032;SDS011;24794;51.982;5.878;2023-12-04T02:44:58;25.65;;;13.57;;
39032;SDS011;24794;51.982;5.878;2023-12-04T02:45:58;25.70;;;13.35;;
39032;SDS011;24794;51.982;5.878;2023-12-04T02:46:59;24.45;;;13.02;;
39032;SDS011;24794;51.982;5.878;2023-12-04T02:48:00;23.48;;;12.95;;
39032;SDS011;24794;51.982;5.878;2023-12-04T02:49:00;23.38;;;12.85;;
39032;SDS011;24794;51.982;5.878;2023-12-04T02:50:01;20.85;;;11.90;;
39032;SDS011;24794;51.982;5.878;2023-12-04T02:51:02;21.85;;;11.80;;
39032;SDS011;24794;51.982;5.878;2023-12-04T02:52:03;21.35;;;11.52;;
39032;SDS011;24794;51.982;5.878;2023-12-04T02:53:04;23.20;;;12.27;;
39032;SDS011;24794;51.982;5.878;2023-12-04T02:54:04;20.95;;;11.50;;
39032;SDS011;24794;51.982;5.878;2023-12-04T02:55:05;20.90;;;10.93;;
39032;SDS011;24794;51.982;5.878;2023-12-04T02:56:06;22.63;;;12.80;;
39032;SDS011;24794;51.982;5.878;2023-12-04T02:57:07;21.45;;;11.82;;
39032;SDS011;24794;51.982;5.878;2023-12-04T02:58:07;22.83;;;11.80;;
39032;SDS011;24794;51.982;5.878;2023-12-04T02:59:08;26.80;;;13.30;;
39032;SDS011;24794;51.982;5.878;2023-12-04T03:00:08;22.02;;;12.43;;
39032;SDS011;24794;51.982;5.878;2023-12-04T03:01:09;23.88;;;13.13;;
39032;SDS011;24794;51.982;5.878;2023-12-04T03:02:10;21.15;;;12.23;;
39032;SDS011;24794;51.982;5.878;2023-12-04T03:03:10;21.70;;;12.25;;
39032;SDS011;24794;51.982;5.878;2023-12-04T03:04:11;21.48;;;12.43;;
39032;SDS011;24794;51.982;5.878;2023-12-04T03:05:12;23.20;;;12.57;;
39032;SDS011;24794;51.982;5.878;2023-12-04T03:06:12;21.20;;;11.73;;
39032;SDS011;24794;51.982;5.878;2023-12-04T03:07:15;21.23;;;11.75;;
39032;SDS011;24794;51.982;5.878;2023-12-04T03:08:20;22.23;;;11.07;;
39032;SDS011;24794;51.982;5.878;2023-12-04T03:09:20;19.75;;;10.40;;
39032;SDS011;24794;51.982;5.878;2023-12-04T03:10:20;21.55;;;11.82;;
39032;SDS011;24794;51.982;5.878;2023-12-04T03:11:21;18.60;;;10.02;;
39032;SDS011;24794;51.982;5.878;2023-12-04T03:12:21;21.48;;;11.35;;
39032;SDS011;24794;51.982;5.878;2023-12-04T03:13:22;20.55;;;11.38;;
39032;SDS011;24794;51.982;5.878;2023-12-04T03:14:23;19.88;;;10.90;;
39032;SDS011;24794;51.982;5.878;2023-12-04T03:15:23;21.23;;;10.98;;
39032;SDS011;24794;51.982;5.878;2023-12-04T03:16:24;22.60;;;12.25;;
39032;SDS011;24794;51.982;5.878;2023-12-04T03:17:25;21.88;;;11.88;;
39032;SDS011;24794;51.982;5.878;2023-12-04T03:18:25;20.88;;;10.98;;
39032;SDS011;24794;51.982;5.878;2023-12-04T03:19:26;21.38;;;10.60;;
39032;SDS011;24794;51.982;5.878;2023-12-04T03:20:27;20.73;;;11.32;;
39032;SDS011;24794;51.982;5.878;2023-12-04T03:21:27;23.83;;;11.15;;
39032;SDS011;24794;51.982;5.878;2023-12-04T03:22:28;20.88;;;11.32;;
39032;SDS011;24794;51.982;5.878;2023-12-04T03:23:29;21.00;;;11.52;;
39032;SDS011;24794;51.982;5.878;2023-12-04T03:24:29;19.05;;;10.65;;
39032;SDS011;24794;51.982;5.878;2023-12-04T03:25:30;20.75;;;10.43;;
39032;SDS011;24794;51.982;5.878;2023-12-04T03:26:30;19.25;;;10.50;;
39032;SDS011;24794;51.982;5.878;2023-12-04T03:27:31;19.73;;;10.63;;
39032;SDS011;24794;51.982;5.878;2023-12-04T03:28:32;20.10;;;11.32;;
39032;SDS011;24794;51.982;5.878;2023-12-04T03:29:32;21.27;;;12.38;;
39032;SDS011;24794;51.982;5.878;2023-12-04T03:30:33;19.85;;;11.02;;
39032;SDS011;24794;51.982;5.878;2023-12-04T03:31:33;19.85;;;10.93;;
39032;SDS011;24794;51.982;5.878;2023-12-04T03:32:36;20.63;;;10.95;;
39032;SDS011;24794;51.982;5.878;2023-12-04T03:33:36;22.92;;;11.98;;
39032;SDS011;24794;51.982;5.878;2023-12-04T03:34:37;21.77;;;11.80;;
39032;SDS011;24794;51.982;5.878;2023-12-04T03:35:38;20.75;;;11.20;;
39032;SDS011;24794;51.982;5.878;2023-12-04T03:36:38;21.80;;;11.65;;
39032;SDS011;24794;51.982;5.878;2023-12-04T03:37:39;20.05;;;11.48;;
39032;SDS011;24794;51.982;5.878;2023-12-04T03:38:39;20.05;;;11.30;;
39032;SDS011;24794;51.982;5.878;2023-12-04T03:39:40;24.05;;;12.20;;
39032;SDS011;24794;51.982;5.878;2023-12-04T03:40:40;20.70;;;11.77;;
39032;SDS011;24794;51.982;5.878;2023-12-04T03:41:41;19.63;;;10.63;;
39032;SDS011;24794;51.982;5.878;2023-12-04T03:42:41;20.08;;;11.38;;
39032;SDS011;24794;51.982;5.878;2023-12-04T03:43:42;18.60;;;10.38;;
39032;SDS011;24794;51.982;5.878;2023-12-04T03:44:42;21.65;;;11.40;;
39032;SDS011;24794;51.982;5.878;2023-12-04T03:45:43;19.80;;;11.05;;
39032;SDS011;24794;51.982;5.878;2023-12-04T03:46:43;22.08;;;12.10;;
39032;SDS011;24794;51.982;5.878;2023-12-04T03:47:44;21.20;;;11.38;;
39032;SDS011;24794;51.982;5.878;2023-12-04T03:48:45;19.58;;;10.95;;
39032;SDS011;24794;51.982;5.878;2023-12-04T03:49:45;23.77;;;12.48;;
39032;SDS011;24794;51.982;5.878;2023-12-04T03:50:46;20.92;;;10.85;;
39032;SDS011;24794;51.982;5.878;2023-12-04T03:51:46;18.23;;;10.52;;
39032;SDS011;24794;51.982;5.878;2023-12-04T03:52:47;21.42;;;11.85;;
39032;SDS011;24794;51.982;5.878;2023-12-04T03:53:47;20.23;;;11.32;;
39032;SDS011;24794;51.982;5.878;2023-12-04T03:54:48;22.42;;;11.95;;
39032;SDS011;24794;51.982;5.878;2023-12-04T03:55:48;19.02;;;9.95;;
39032;SDS011;24794;51.982;5.878;2023-12-04T03:56:49;18.50;;;10.27;;
39032;SDS011;24794;51.982;5.878;2023-12-04T03:57:49;18.48;;;11.43;;
39032;SDS011;24794;51.982;5.878;2023-12-04T03:58:50;17.10;;;9.50;;
39032;SDS011;24794;51.982;5.878;2023-12-04T03:59:50;21.20;;;11.10;;
39032;SDS011;24794;51.982;5.878;2023-12-04T04:00:51;19.73;;;10.57;;
39032;SDS011;24794;51.982;5.878;2023-12-04T04:01:51;20.45;;;10.75;;
39032;SDS011;24794;51.982;5.878;2023-12-04T04:02:52;24.80;;;11.45;;
39032;SDS011;24794;51.982;5.878;2023-12-04T04:03:52;17.65;;;10.25;;
39032;SDS011;24794;51.982;5.878;2023-12-04T04:04:53;20.08;;;10.68;;
39032;SDS011;24794;51.982;5.878;2023-12-04T04:05:53;20.67;;;11.43;;
39032;SDS011;24794;51.982;5.878;2023-12-04T04:06:54;21.55;;;11.65;;
39032;SDS011;24794;51.982;5.878;2023-12-04T04:07:55;20.27;;;10.85;;
39032;SDS011;24794;51.982;5.878;2023-12-04T04:08:55;19.75;;;10.68;;
39032;SDS011;24794;51.982;5.878;2023-12-04T04:09:56;22.42;;;10.70;;
39032;SDS011;24794;51.982;5.878;2023-12-04T04:10:56;17.27;;;9.57;;
39032;SDS011;24794;51.982;5.878;2023-12-04T04:11:57;18.00;;;9.85;;
39032;SDS011;24794;51.982;5.878;2023-12-04T04:12:57;17.95;;;10.70;;
39032;SDS011;24794;51.982;5.878;2023-12-04T04:13:58;17.02;;;9.75;;
39032;SDS011;24794;51.982;5.878;2023-12-04T04:14:58;20.25;;;10.85;;
39032;SDS011;24794;51.982;5.878;2023-12-04T04:15:59;17.63;;;10.02;;
39032;SDS011;24794;51.982;5.878;2023-12-04T04:17:00;17.92;;;10.05;;
39032;SDS011;24794;51.982;5.878;2023-12-04T04:18:00;19.20;;;10.85;;
39032;SDS011;24794;51.982;5.878;2023-12-04T04:19:01;16.60;;;10.02;;
39032;SDS011;24794;51.982;5.878;2023-12-04T04:20:01;17.95;;;9.50;;
39032;SDS011;24794;51.982;5.878;2023-12-04T04:21:03;16.52;;;9.00;;
39032;SDS011;24794;51.982;5.878;2023-12-04T04:22:03;17.15;;;9.45;;
39032;SDS011;24794;51.982;5.878;2023-12-04T04:23:04;17.10;;;10.10;;
39032;SDS011;24794;51.982;5.878;2023-12-04T04:24:04;16.35;;;9.27;;
39032;SDS011;24794;51.982;5.878;2023-12-04T04:25:05;16.92;;;9.63;;
39032;SDS011;24794;51.982;5.878;2023-12-04T04:26:07;19.20;;;10.75;;
39032;SDS011;24794;51.982;5.878;2023-12-04T04:27:07;19.05;;;10.48;;
39032;SDS011;24794;51.982;5.878;2023-12-04T04:28:08;18.60;;;10.65;;
39032;SDS011;24794;51.982;5.878;2023-12-04T04:29:08;18.20;;;10.43;;
39032;SDS011;24794;51.982;5.878;2023-12-04T04:30:09;18.40;;;10.75;;
39032;SDS011;24794;51.982;5.878;2023-12-04T04:31:10;19.92;;;10.82;;
39032;SDS011;24794;51.982;5.878;2023-12-04T04:32:11;18.02;;;10.60;;
39032;SDS011;24794;51.982;5.878;2023-12-04T04:33:11;16.67;;;9.90;;
39032;SDS011;24794;51.982;5.878;2023-12-04T04:34:12;17.02;;;10.00;;
39032;SDS011;24794;51.982;5.878;2023-12-04T04:35:13;15.93;;;9.27;;
39032;SDS011;24794;51.982;5.878;2023-12-04T04:36:13;17.90;;;10.77;;
39032;SDS011;24794;51.982;5.878;2023-12-04T04:37:14;18.98;;;10.80;;
39032;SDS011;24794;51.982;5.878;2023-12-04T04:38:14;19.27;;;9.70;;
39032;SDS011;24794;51.982;5.878;2023-12-04T04:39:15;14.05;;;8.30;;
39032;SDS011;24794;51.982;5.878;2023-12-04T04:40:15;15.32;;;9.73;;
39032;SDS011;24794;51.982;5.878;2023-12-04T04:41:16;19.02;;;10.70;;
39032;SDS011;24794;51.982;5.878;2023-12-04T04:42:17;17.52;;;9.95;;
39032;SDS011;24794;51.982;5.878;2023-12-04T04:43:17;17.40;;;10.35;;
39032;SDS011;24794;51.982;5.878;2023-12-04T04:44:19;16.77;;;9.73;;
39032;SDS011;24794;51.982;5.878;2023-12-04T04:45:20;18.80;;;9.70;;
39032;SDS011;24794;51.982;5.878;2023-12-04T04:46:20;17.02;;;9.98;;
39032;SDS011;24794;51.982;5.878;2023-12-04T04:47:21;17.85;;;10.13;;
39032;SDS011;24794;51.982;5.878;2023-12-04T04:48:21;18.02;;;9.95;;
39032;SDS011;24794;51.982;5.878;2023-12-04T04:49:22;17.48;;;9.65;;
39032;SDS011;24794;51.982;5.878;2023-12-04T04:50:22;17.10;;;9.43;;
39032;SDS011;24794;51.982;5.878;2023-12-04T04:51:23;17.73;;;9.68;;
39032;SDS011;24794;51.982;5.878;2023-12-04T04:52:23;15.70;;;9.45;;
39032;SDS011;24794;51.982;5.878;2023-12-04T04:53:24;18.00;;;10.93;;
39032;SDS011;24794;51.982;5.878;2023-12-04T04:54:25;16.55;;;9.40;;
39032;SDS011;24794;51.982;5.878;2023-12-04T04:55:25;15.68;;;8.93;;
39032;SDS011;24794;51.982;5.878;2023-12-04T04:56:26;15.30;;;8.98;;
39032;SDS011;24794;51.982;5.878;2023-12-04T04:57:26;16.00;;;8.93;;
39032;SDS011;24794;51.982;5.878;2023-12-04T04:58:27;15.70;;;8.50;;
39032;SDS011;24794;51.982;5.878;2023-12-04T04:59:27;17.58;;;10.00;;
39032;SDS011;24794;51.982;5.878;2023-12-04T05:00:30;17.63;;;9.07;;
39032;SDS011;24794;51.982;5.878;2023-12-04T05:01:30;14.85;;;9.07;;
39032;SDS011;24794;51.982;5.878;2023-12-04T05:02:31;15.30;;;8.25;;
39032;SDS011;24794;51.982;5.878;2023-12-04T05:03:31;14.43;;;8.75;;
39032;SDS011;24794;51.982;5.878;2023-12-04T05:04:32;14.93;;;9.40;;
39032;SDS011;24794;51.982;5.878;2023-12-04T05:05:33;16.52;;;9.15;;
39032;SDS011;24794;51.982;5.878;2023-12-04T05:06:33;15.68;;;8.75;;
39032;SDS011;24794;51.982;5.878;2023-12-04T05:07:34;17.20;;;9.43;;
39032;SDS011;24794;51.982;5.878;2023-12-04T05:08:34;15.10;;;8.60;;
39032;SDS011;24794;51.982;5.878;2023-12-04T05:09:35;15.70;;;8.88;;
39032;SDS011;24794;51.982;5.878;2023-12-04T05:10:35;15.27;;;8.77;;
39032;SDS011;24794;51.982;5.878;2023-12-04T05:11:38;15.13;;;8.68;;
39032;SDS011;24794;51.982;5.878;2023-12-04T05:12:39;15.85;;;8.05;;
39032;SDS011;24794;51.982;5.878;2023-12-04T05:13:39;15.77;;;9.23;;
39032;SDS011;24794;51.982;5.878;2023-12-04T05:14:40;15.35;;;8.32;;
39032;SDS011;24794;51.982;5.878;2023-12-04T05:15:40;15.35;;;8.50;;
39032;SDS011;24794;51.982;5.878;2023-12-04T05:16:41;14.50;;;8.38;;
39032;SDS011;24794;51.982;5.878;2023-12-04T05:17:41;13.05;;;7.82;;
39032;SDS011;24794;51.982;5.878;2023-12-04T05:18:42;14.20;;;8.60;;
39032;SDS011;24794;51.982;5.878;2023-12-04T05:19:42;15.85;;;9.63;;
39032;SDS011;24794;51.982;5.878;2023-12-04T05:20:43;14.40;;;7.93;;
39032;SDS011;24794;51.982;5.878;2023-12-04T05:21:43;14.23;;;7.90;;
39032;SDS011;24794;51.982;5.878;2023-12-04T05:22:44;14.23;;;8.27;;
39032;SDS011;24794;51.982;5.878;2023-12-04T05:23:44;16.48;;;8.57;;
39032;SDS011;24794;51.982;5.878;2023-12-04T05:24:45;14.93;;;8.55;;
39032;SDS011;24794;51.982;5.878;2023-12-04T05:25:45;13.30;;;7.80;;
39032;SDS011;24794;51.982;5.878;2023-12-04T05:26:46;14.70;;;8.23;;
39032;SDS011;24794;51.982;5.878;2023-12-04T05:27:47;15.15;;;9.50;;
39032;SDS011;24794;51.982;5.878;2023-12-04T05:28:47;13.75;;;8.23;;
39032;SDS011;24794;51.982;5.878;2023-12-04T05:29:48;13.90;;;8.80;;
39032;SDS011;24794;51.982;5.878;2023-12-04T05:30:48;14.05;;;8.07;;
39032;SDS011;24794;51.982;5.878;2023-12-04T05:31:49;15.63;;;9.25;;
39032;SDS011;24794;51.982;5.878;2023-12-04T05:32:49;15.60;;;8.23;;
39032;SDS011;24794;51.982;5.878;2023-12-04T05:33:50;15.13;;;8.63;;
39032;SDS011;24794;51.982;5.878;2023-12-04T05:34:50;15.13;;;8.93;;
39032;SDS011;24794;51.982;5.878;2023-12-04T05:35:51;14.07;;;8.43;;
39032;SDS011;24794;51.982;5.878;2023-12-04T05:36:52;14.15;;;8.35;;
39032;SDS011;24794;51.982;5.878;2023-12-04T05:37:52;14.30;;;8.73;;
39032;SDS011;24794;51.982;5.878;2023-12-04T05:38:53;15.63;;;8.63;;
39032;SDS011;24794;51.982;5.878;2023-12-04T05:39:53;14.52;;;8.20;;
39032;SDS011;24794;51.982;5.878;2023-12-04T05:40:54;15.27;;;8.98;;
39032;SDS011;24794;51.982;5.878;2023-12-04T05:41:54;13.80;;;7.95;;
39032;SDS011;24794;51.982;5.878;2023-12-04T05:42:55;15.13;;;8.48;;
39032;SDS011;24794;51.982;5.878;2023-12-04T05:43:56;14.15;;;8.25;;
39032;SDS011;24794;51.982;5.878;2023-12-04T05:44:56;13.10;;;7.70;;
39032;SDS011;24794;51.982;5.878;2023-12-04T05:45:57;15.23;;;8.35;;
39032;SDS011;24794;51.982;5.878;2023-12-04T05:46:58;14.52;;;8.55;;
39032;SDS011;24794;51.982;5.878;2023-12-04T05:47:59;14.10;;;8.25;;
39032;SDS011;24794;51.982;5.878;2023-12-04T05:48:59;17.40;;;8.85;;
39032;SDS011;24794;51.982;5.878;2023-12-04T05:50:00;13.43;;;7.80;;
39032;SDS011;24794;51.982;5.878;2023-12-04T05:51:01;13.90;;;8.65;;
39032;SDS011;24794;51.982;5.878;2023-12-04T05:52:01;13.52;;;7.97;;
39032;SDS011;24794;51.982;5.878;2023-12-04T05:53:02;15.85;;;8.40;;
39032;SDS011;24794;51.982;5.878;2023-12-04T05:54:02;14.68;;;8.82;;
39032;SDS011;24794;51.982;5.878;2023-12-04T05:55:03;13.38;;;7.72;;
39032;SDS011;24794;51.982;5.878;2023-12-04T05:56:04;14.05;;;7.95;;
39032;SDS011;24794;51.982;5.878;2023-12-04T05:57:06;15.15;;;8.50;;
39032;SDS011;24794;51.982;5.878;2023-12-04T05:58:06;13.77;;;7.53;;